sensor_id;sensor_type;location;lat;lon;timestamp;pressure;altitude;pressure_sealevel;temperature;humidity
23339;BME280;11841;49.368;20.962;2023-02-13T00:01:03;97633.03;;;-4.09;84.98
23339;BME280;11841;49.368;20.962;2023-02-13T00:03:29;97634.88;;;-4.11;85.09
23339;BME280;11841;49.368;20.962;2023-02-13T00:05:56;97640.13;;;-4.12;85.00
23339;BME280;11841;49.368;20.962;2023-02-13T00:08:22;97638.38;;;-4.12;85.01
23339;BME280;11841;49.368;20.962;2023-02-13T00:10:49;97638.28;;;-4.10;84.96
23339;BME280;11841;49.368;20.962;2023-02-13T00:13:15;97642.66;;;-4.11;84.75
23339;BME280;11841;49.368;20.962;2023-02-13T00:15:41;97636.78;;;-4.14;84.94
23339;BME280;11841;49.368;20.962;2023-02-13T00:18:08;97642.78;;;-4.14;84.78
23339;BME280;11841;49.368;20.962;2023-02-13T00:20:35;97627.16;;;-4.12;85.57
23339;BME280;11841;49.368;20.962;2023-02-13T00:23:01;97624.56;;;-4.12;85.39
23339;BME280;11841;49.368;20.962;2023-02-13T00:25:27;97629.63;;;-4.09;85.32
23339;BME280;11841;49.368;20.962;2023-02-13T00:27:54;97622.56;;;-4.07;85.63
23339;BME280;11841;49.368;20.962;2023-02-13T00:30:21;97623.25;;;-4.04;85.34
23339;BME280;11841;49.368;20.962;2023-02-13T00:32:47;97625.94;;;-4.05;85.39
23339;BME280;11841;49.368;20.962;2023-02-13T00:35:14;97630.28;;;-4.06;85.68
23339;BME280;11841;49.368;20.962;2023-02-13T00:37:40;97627.63;;;-4.04;85.81
23339;BME280;11841;49.368;20.962;2023-02-13T00:40:07;97618.91;;;-4.03;86.24
23339;BME280;11841;49.368;20.962;2023-02-13T00:42:34;97623.03;;;-3.99;86.21
23339;BME280;11841;49.368;20.962;2023-02-13T00:45:00;97619.69;;;-4.01;85.96
23339;BME280;11841;49.368;20.962;2023-02-13T00:47:27;97601.63;;;-4.03;86.09
23339;BME280;11841;49.368;20.962;2023-02-13T00:49:53;97608.38;;;-4.00;86.18
23339;BME280;11841;49.368;20.962;2023-02-13T00:52:20;97609.56;;;-4.06;86.51
23339;BME280;11841;49.368;20.962;2023-02-13T00:54:46;97613.81;;;-4.05;86.47
23339;BME280;11841;49.368;20.962;2023-02-13T00:57:13;97604.13;;;-4.01;86.03
23339;BME280;11841;49.368;20.962;2023-02-13T00:59:39;97610.06;;;-3.99;85.93
23339;BME280;11841;49.368;20.962;2023-02-13T01:02:06;97602.03;;;-3.95;86.18
23339;BME280;11841;49.368;20.962;2023-02-13T01:04:33;97600.22;;;-3.93;86.19
23339;BME280;11841;49.368;20.962;2023-02-13T01:06:59;97597.53;;;-3.91;86.58
23339;BME280;11841;49.368;20.962;2023-02-13T01:09:26;97604.22;;;-3.87;86.27
23339;BME280;11841;49.368;20.962;2023-02-13T01:11:52;97600.72;;;-3.86;86.58
23339;BME280;11841;49.368;20.962;2023-02-13T01:14:18;97595.53;;;-3.86;86.25
23339;BME280;11841;49.368;20.962;2023-02-13T01:16:45;97594.59;;;-3.85;86.55
23339;BME280;11841;49.368;20.962;2023-02-13T01:19:11;97595.19;;;-3.80;86.59
23339;BME280;11841;49.368;20.962;2023-02-13T01:21:38;97587.34;;;-3.79;86.78
23339;BME280;11841;49.368;20.962;2023-02-13T01:24:05;97590.00;;;-3.80;86.62
23339;BME280;11841;49.368;20.962;2023-02-13T01:26:31;97581.31;;;-3.79;86.54
23339;BME280;11841;49.368;20.962;2023-02-13T01:28:58;97579.41;;;-3.91;87.61
23339;BME280;11841;49.368;20.962;2023-02-13T01:31:24;97577.75;;;-3.92;87.60
23339;BME280;11841;49.368;20.962;2023-02-13T01:33:54;97571.28;;;-3.85;87.35
23339;BME280;11841;49.368;20.962;2023-02-13T01:36:21;97571.94;;;-3.82;87.25
23339;BME280;11841;49.368;20.962;2023-02-13T01:38:47;97570.09;;;-3.80;86.82
23339;BME280;11841;49.368;20.962;2023-02-13T01:41:14;97569.94;;;-3.77;87.27
23339;BME280;11841;49.368;20.962;2023-02-13T01:46:10;97558.75;;;-3.77;87.35
23339;BME280;11841;49.368;20.962;2023-02-13T01:48:37;97550.78;;;-3.74;87.59
23339;BME280;11841;49.368;20.962;2023-02-13T01:51:06;97542.34;;;-3.78;87.85
23339;BME280;11841;49.368;20.962;2023-02-13T01:53:44;97550.53;;;-3.85;88.57
23339;BME280;11841;49.368;20.962;2023-02-13T01:56:22;97555.41;;;-3.79;88.19
23339;BME280;11841;49.368;20.962;2023-02-13T01:58:52;97549.88;;;-3.73;88.86
23339;BME280;11841;49.368;20.962;2023-02-13T02:01:19;97551.38;;;-3.69;88.55
23339;BME280;11841;49.368;20.962;2023-02-13T02:04:01;97534.00;;;-3.67;88.32
23339;BME280;11841;49.368;20.962;2023-02-13T02:06:32;97553.97;;;-3.69;88.98
23339;BME280;11841;49.368;20.962;2023-02-13T02:09:04;97557.31;;;-3.67;89.15
23339;BME280;11841;49.368;20.962;2023-02-13T02:14:18;97544.94;;;-3.62;89.37
23339;BME280;11841;49.368;20.962;2023-02-13T02:16:45;97548.19;;;-3.58;89.33
23339;BME280;11841;49.368;20.962;2023-02-13T02:27:45;97529.44;;;-3.48;89.22
23339;BME280;11841;49.368;20.962;2023-02-13T02:33:12;97532.94;;;-3.49;88.95
23339;BME280;11841;49.368;20.962;2023-02-13T02:35:39;97535.44;;;-3.47;89.16
23339;BME280;11841;49.368;20.962;2023-02-13T02:38:14;97535.25;;;-3.44;89.03
23339;BME280;11841;49.368;20.962;2023-02-13T02:45:55;97526.47;;;-3.42;88.62
23339;BME280;11841;49.368;20.962;2023-02-13T02:57:14;97526.09;;;-3.50;88.68
23339;BME280;11841;49.368;20.962;2023-02-13T02:59:42;97527.00;;;-3.51;88.86
23339;BME280;11841;49.368;20.962;2023-02-13T03:02:28;97536.28;;;-3.47;88.83
23339;BME280;11841;49.368;20.962;2023-02-13T03:05:16;97538.78;;;-3.45;88.47
23339;BME280;11841;49.368;20.962;2023-02-13T03:08:03;97534.66;;;-3.63;88.86
23339;BME280;11841;49.368;20.962;2023-02-13T03:10:31;97542.53;;;-3.65;88.80
23339;BME280;11841;49.368;20.962;2023-02-13T03:13:27;97539.16;;;-3.67;88.43
23339;BME280;11841;49.368;20.962;2023-02-13T03:15:56;97532.28;;;-3.68;88.49
23339;BME280;11841;49.368;20.962;2023-02-13T03:18:45;97524.38;;;-3.65;88.62
23339;BME280;11841;49.368;20.962;2023-02-13T03:26:55;97525.63;;;-3.56;87.91
23339;BME280;11841;49.368;20.962;2023-02-13T03:29:30;97516.41;;;-3.62;87.75
23339;BME280;11841;49.368;20.962;2023-02-13T03:35:00;97514.00;;;-3.65;87.82
23339;BME280;11841;49.368;20.962;2023-02-13T03:38:13;97516.59;;;-3.65;87.33
23339;BME280;11841;49.368;20.962;2023-02-13T03:40:50;97511.56;;;-3.68;87.45
23339;BME280;11841;49.368;20.962;2023-02-13T03:43:40;97522.28;;;-3.74;87.25
23339;BME280;11841;49.368;20.962;2023-02-13T03:46:09;97523.94;;;-3.73;87.64
23339;BME280;11841;49.368;20.962;2023-02-13T03:48:36;97525.81;;;-3.75;87.32
23339;BME280;11841;49.368;20.962;2023-02-13T03:51:27;97530.38;;;-3.80;87.70
23339;BME280;11841;49.368;20.962;2023-02-13T03:53:57;97521.72;;;-3.79;87.44
23339;BME280;11841;49.368;20.962;2023-02-13T03:56:25;97536.31;;;-3.78;87.93
23339;BME280;11841;49.368;20.962;2023-02-13T03:59:33;97535.44;;;-3.77;87.46
23339;BME280;11841;49.368;20.962;2023-02-13T04:04:29;97544.28;;;-3.81;87.41
23339;BME280;11841;49.368;20.962;2023-02-13T04:06:59;97554.81;;;-3.84;87.33
23339;BME280;11841;49.368;20.962;2023-02-13T04:09:28;97554.06;;;-3.86;87.40
23339;BME280;11841;49.368;20.962;2023-02-13T04:11:57;97552.06;;;-3.81;87.57
23339;BME280;11841;49.368;20.962;2023-02-13T04:17:22;97555.03;;;-3.73;87.20
23339;BME280;11841;49.368;20.962;2023-02-13T04:19:50;97561.75;;;-3.69;87.14
23339;BME280;11841;49.368;20.962;2023-02-13T04:22:16;97550.53;;;-3.70;87.20
23339;BME280;11841;49.368;20.962;2023-02-13T04:24:43;97548.97;;;-3.72;87.30
23339;BME280;11841;49.368;20.962;2023-02-13T04:27:12;97544.69;;;-3.73;87.61
23339;BME280;11841;49.368;20.962;2023-02-13T04:29:39;97548.13;;;-3.73;87.55
23339;BME280;11841;49.368;20.962;2023-02-13T04:32:06;97548.78;;;-3.69;87.71
23339;BME280;11841;49.368;20.962;2023-02-13T04:34:32;97544.53;;;-3.70;87.57
23339;BME280;11841;49.368;20.962;2023-02-13T04:36:59;97547.94;;;-3.70;87.73
23339;BME280;11841;49.368;20.962;2023-02-13T04:39:25;97552.22;;;-3.68;87.61
23339;BME280;11841;49.368;20.962;2023-02-13T04:41:51;97551.19;;;-3.66;87.79
23339;BME280;11841;49.368;20.962;2023-02-13T04:44:18;97549.53;;;-3.67;87.88
23339;BME280;11841;49.368;20.962;2023-02-13T04:46:44;97546.19;;;-3.69;88.00
23339;BME280;11841;49.368;20.962;2023-02-13T04:49:11;97546.69;;;-3.78;88.70
23339;BME280;11841;49.368;20.962;2023-02-13T04:51:37;97544.84;;;-3.76;88.82
23339;BME280;11841;49.368;20.962;2023-02-13T04:54:04;97543.03;;;-3.74;88.86
23339;BME280;11841;49.368;20.962;2023-02-13T04:56:30;97550.03;;;-3.76;88.87
23339;BME280;11841;49.368;20.962;2023-02-13T04:58:57;97555.41;;;-3.79;88.74
23339;BME280;11841;49.368;20.962;2023-02-13T05:01:23;97547.44;;;-3.76;88.64
23339;BME280;11841;49.368;20.962;2023-02-13T05:03:50;97547.81;;;-3.82;89.62
23339;BME280;11841;49.368;20.962;2023-02-13T05:06:16;97545.78;;;-3.77;89.26
23339;BME280;11841;49.368;20.962;2023-02-13T05:08:43;97555.97;;;-3.74;89.25
23339;BME280;11841;49.368;20.962;2023-02-13T05:11:09;97558.50;;;-3.73;89.39
23339;BME280;11841;49.368;20.962;2023-02-13T05:13:36;97551.56;;;-3.72;89.51
23339;BME280;11841;49.368;20.962;2023-02-13T05:16:02;97551.28;;;-3.67;89.68
23339;BME280;11841;49.368;20.962;2023-02-13T05:18:29;97547.53;;;-3.62;89.44
23339;BME280;11841;49.368;20.962;2023-02-13T05:20:55;97547.25;;;-3.57;89.42
23339;BME280;11841;49.368;20.962;2023-02-13T05:23:47;97548.84;;;-3.55;89.20
23339;BME280;11841;49.368;20.962;2023-02-13T05:26:14;97548.00;;;-3.55;89.74
23339;BME280;11841;49.368;20.962;2023-02-13T05:28:40;97552.22;;;-3.53;89.71
23339;BME280;11841;49.368;20.962;2023-02-13T05:31:25;97548.69;;;-3.52;90.45
23339;BME280;11841;49.368;20.962;2023-02-13T05:33:52;97554.44;;;-3.47;90.07
23339;BME280;11841;49.368;20.962;2023-02-13T05:36:18;97542.97;;;-3.43;90.11
23339;BME280;11841;49.368;20.962;2023-02-13T05:38:45;97535.13;;;-3.41;90.48
23339;BME280;11841;49.368;20.962;2023-02-13T05:41:11;97539.44;;;-3.42;90.59
23339;BME280;11841;49.368;20.962;2023-02-13T05:43:38;97544.38;;;-3.37;90.65
23339;BME280;11841;49.368;20.962;2023-02-13T05:46:05;97546.88;;;-3.36;90.93
23339;BME280;11841;49.368;20.962;2023-02-13T05:48:32;97549.97;;;-3.29;90.76
23339;BME280;11841;49.368;20.962;2023-02-13T05:50:59;97554.97;;;-3.26;91.01
23339;BME280;11841;49.368;20.962;2023-02-13T05:53:26;97555.97;;;-3.29;91.01
23339;BME280;11841;49.368;20.962;2023-02-13T05:55:52;97553.38;;;-3.29;91.26
23339;BME280;11841;49.368;20.962;2023-02-13T05:58:19;97563.00;;;-3.31;92.81
23339;BME280;11841;49.368;20.962;2023-02-13T06:00:46;97557.81;;;-3.31;92.35
23339;BME280;11841;49.368;20.962;2023-02-13T06:03:13;97553.94;;;-3.24;92.04
23339;BME280;11841;49.368;20.962;2023-02-13T06:05:39;97546.69;;;-3.17;91.87
23339;BME280;11841;49.368;20.962;2023-02-13T06:08:06;97536.88;;;-3.12;91.68
23339;BME280;11841;49.368;20.962;2023-02-13T06:10:32;97545.22;;;-3.07;91.49
23339;BME280;11841;49.368;20.962;2023-02-13T06:12:59;97548.53;;;-3.05;92.16
23339;BME280;11841;49.368;20.962;2023-02-13T06:15:25;97548.19;;;-2.99;91.68
23339;BME280;11841;49.368;20.962;2023-02-13T06:17:52;97559.03;;;-2.93;91.97
23339;BME280;11841;49.368;20.962;2023-02-13T06:20:19;97560.53;;;-2.89;91.43
23339;BME280;11841;49.368;20.962;2023-02-13T06:22:48;97560.25;;;-2.84;91.52
23339;BME280;11841;49.368;20.962;2023-02-13T06:25:16;97553.97;;;-2.80;91.52
23339;BME280;11841;49.368;20.962;2023-02-13T06:27:42;97550.34;;;-2.78;91.57
23339;BME280;11841;49.368;20.962;2023-02-13T06:30:09;97550.06;;;-2.73;91.63
23339;BME280;11841;49.368;20.962;2023-02-13T06:32:35;97544.63;;;-2.69;91.40
23339;BME280;11841;49.368;20.962;2023-02-13T06:35:02;97538.31;;;-2.65;91.80
23339;BME280;11841;49.368;20.962;2023-02-13T06:37:31;97546.66;;;-2.60;91.51
23339;BME280;11841;49.368;20.962;2023-02-13T06:39:57;97548.03;;;-2.54;91.64
23339;BME280;11841;49.368;20.962;2023-02-13T06:42:24;97545.44;;;-2.54;92.78
23339;BME280;11841;49.368;20.962;2023-02-13T06:44:50;97550.94;;;-2.59;92.91
23339;BME280;11841;49.368;20.962;2023-02-13T06:47:17;97543.13;;;-2.59;93.33
23339;BME280;11841;49.368;20.962;2023-02-13T06:49:43;97539.78;;;-2.61;93.87
23339;BME280;11841;49.368;20.962;2023-02-13T06:52:10;97549.84;;;-2.55;93.79
23339;BME280;11841;49.368;20.962;2023-02-13T06:54:36;97548.69;;;-2.51;93.86
23339;BME280;11841;49.368;20.962;2023-02-13T06:57:13;97556.94;;;-2.44;94.19
23339;BME280;11841;49.368;20.962;2023-02-13T06:59:40;97559.28;;;-2.39;94.32
23339;BME280;11841;49.368;20.962;2023-02-13T07:02:08;97566.03;;;-2.37;93.95
23339;BME280;11841;49.368;20.962;2023-02-13T07:04:34;97551.13;;;-2.33;94.46
23339;BME280;11841;49.368;20.962;2023-02-13T07:07:01;97565.59;;;-2.29;95.03
23339;BME280;11841;49.368;20.962;2023-02-13T07:09:27;97565.41;;;-2.26;95.04
23339;BME280;11841;49.368;20.962;2023-02-13T07:11:54;97562.34;;;-2.19;94.75
23339;BME280;11841;49.368;20.962;2023-02-13T07:14:20;97561.00;;;-2.12;94.05
23339;BME280;11841;49.368;20.962;2023-02-13T07:16:47;97565.00;;;-2.06;94.22
23339;BME280;11841;49.368;20.962;2023-02-13T07:19:13;97562.22;;;-2.03;94.61
23339;BME280;11841;49.368;20.962;2023-02-13T07:21:40;97565.34;;;-1.98;94.17
23339;BME280;11841;49.368;20.962;2023-02-13T07:24:06;97571.94;;;-1.93;94.44
23339;BME280;11841;49.368;20.962;2023-02-13T07:26:33;97570.00;;;-1.89;93.98
23339;BME280;11841;49.368;20.962;2023-02-13T07:28:59;97568.88;;;-1.85;94.31
23339;BME280;11841;49.368;20.962;2023-02-13T07:31:37;97566.38;;;-1.87;95.89
23339;BME280;11841;49.368;20.962;2023-02-13T07:34:04;97568.59;;;-1.81;95.26
23339;BME280;11841;49.368;20.962;2023-02-13T07:36:31;97568.28;;;-1.76;95.32
23339;BME280;11841;49.368;20.962;2023-02-13T07:38:57;97570.53;;;-1.70;95.20
23339;BME280;11841;49.368;20.962;2023-02-13T07:41:24;97554.72;;;-1.67;96.48
23339;BME280;11841;49.368;20.962;2023-02-13T07:43:52;97561.56;;;-1.66;96.18
23339;BME280;11841;49.368;20.962;2023-02-13T07:46:19;97554.50;;;-1.64;96.14
23339;BME280;11841;49.368;20.962;2023-02-13T07:48:45;97553.50;;;-1.62;96.54
23339;BME280;11841;49.368;20.962;2023-02-13T07:51:12;97555.78;;;-1.57;97.05
23339;BME280;11841;49.368;20.962;2023-02-13T07:53:39;97556.44;;;-1.54;97.54
23339;BME280;11841;49.368;20.962;2023-02-13T07:56:05;97553.44;;;-1.48;97.97
23339;BME280;11841;49.368;20.962;2023-02-13T07:58:32;97555.84;;;-1.45;97.63
23339;BME280;11841;49.368;20.962;2023-02-13T08:01:04;97560.66;;;-1.39;97.79
23339;BME280;11841;49.368;20.962;2023-02-13T08:03:30;97560.38;;;-1.34;98.15
23339;BME280;11841;49.368;20.962;2023-02-13T08:05:57;97557.56;;;-1.31;98.44
23339;BME280;11841;49.368;20.962;2023-02-13T08:08:24;97555.50;;;-1.26;97.64
23339;BME280;11841;49.368;20.962;2023-02-13T08:10:50;97550.09;;;-1.23;98.15
23339;BME280;11841;49.368;20.962;2023-02-13T08:13:35;97554.88;;;-1.17;98.88
23339;BME280;11841;49.368;20.962;2023-02-13T08:16:02;97552.81;;;-1.12;98.94
23339;BME280;11841;49.368;20.962;2023-02-13T08:18:29;97555.03;;;-1.06;98.99
23339;BME280;11841;49.368;20.962;2023-02-13T08:20:55;97544.19;;;-1.00;98.48
23339;BME280;11841;49.368;20.962;2023-02-13T08:23:22;97550.88;;;-0.96;99.66
23339;BME280;11841;49.368;20.962;2023-02-13T08:25:48;97540.03;;;-0.90;98.83
23339;BME280;11841;49.368;20.962;2023-02-13T08:28:15;97541.31;;;-0.83;98.46
23339;BME280;11841;49.368;20.962;2023-02-13T08:30:42;97543.50;;;-0.77;99.46
23339;BME280;11841;49.368;20.962;2023-02-13T08:33:08;97536.22;;;-0.72;100.00
23339;BME280;11841;49.368;20.962;2023-02-13T08:35:35;97530.47;;;-0.64;99.17
23339;BME280;11841;49.368;20.962;2023-02-13T08:38:02;97525.78;;;-0.59;100.00
23339;BME280;11841;49.368;20.962;2023-02-13T08:40:28;97531.44;;;-0.53;100.00
23339;BME280;11841;49.368;20.962;2023-02-13T08:42:58;97527.44;;;-0.46;100.00
23339;BME280;11841;49.368;20.962;2023-02-13T08:45:25;97530.56;;;-0.41;100.00
23339;BME280;11841;49.368;20.962;2023-02-13T08:47:54;97524.00;;;-0.34;100.00
23339;BME280;11841;49.368;20.962;2023-02-13T08:50:21;97527.84;;;-0.27;99.60
23339;BME280;11841;49.368;20.962;2023-02-13T08:52:47;97515.22;;;-0.20;99.41
23339;BME280;11841;49.368;20.962;2023-02-13T08:55:14;97516.56;;;-0.15;99.95
23339;BME280;11841;49.368;20.962;2023-02-13T08:57:40;97522.28;;;-0.10;100.00
23339;BME280;11841;49.368;20.962;2023-02-13T09:00:07;97520.94;;;-0.03;99.86
23339;BME280;11841;49.368;20.962;2023-02-13T09:02:34;97512.47;;;0.07;99.36
23339;BME280;11841;49.368;20.962;2023-02-13T09:05:00;97509.41;;;0.13;100.00
23339;BME280;11841;49.368;20.962;2023-02-13T09:07:27;97507.06;;;0.21;99.97
23339;BME280;11841;49.368;20.962;2023-02-13T09:09:53;97510.69;;;0.31;100.00
23339;BME280;11841;49.368;20.962;2023-02-13T09:12:20;97506.50;;;0.41;99.85
23339;BME280;11841;49.368;20.962;2023-02-13T09:14:46;97512.09;;;0.47;98.94
23339;BME280;11841;49.368;20.962;2023-02-13T09:17:13;97509.88;;;0.54;99.37
23339;BME280;11841;49.368;20.962;2023-02-13T09:19:43;97511.91;;;0.61;98.97
23339;BME280;11841;49.368;20.962;2023-02-13T09:22:11;97508.97;;;0.66;99.30
23339;BME280;11841;49.368;20.962;2023-02-13T09:24:38;97506.63;;;0.74;99.17
23339;BME280;11841;49.368;20.962;2023-02-13T09:27:04;97509.50;;;0.82;98.51
23339;BME280;11841;49.368;20.962;2023-02-13T09:29:31;97504.66;;;0.88;98.95
23339;BME280;11841;49.368;20.962;2023-02-13T09:31:59;97510.28;;;0.95;99.16
23339;BME280;11841;49.368;20.962;2023-02-13T09:34:25;97506.22;;;1.02;98.73
23339;BME280;11841;49.368;20.962;2023-02-13T09:36:52;97500.56;;;1.08;98.54
23339;BME280;11841;49.368;20.962;2023-02-13T09:39:19;97496.66;;;1.13;98.27
23339;BME280;11841;49.368;20.962;2023-02-13T09:41:46;97491.69;;;1.21;98.71
23339;BME280;11841;49.368;20.962;2023-02-13T09:44:26;97492.66;;;1.32;98.19
23339;BME280;11841;49.368;20.962;2023-02-13T09:49:36;97497.53;;;1.47;97.36
23339;BME280;11841;49.368;20.962;2023-02-13T09:52:03;97491.03;;;1.53;97.24
23339;BME280;11841;49.368;20.962;2023-02-13T09:54:30;97494.91;;;1.58;96.52
23339;BME280;11841;49.368;20.962;2023-02-13T09:56:59;97502.56;;;1.61;96.52
23339;BME280;11841;49.368;20.962;2023-02-13T10:05:15;97501.13;;;1.79;96.13
23339;BME280;11841;49.368;20.962;2023-02-13T10:18:17;97490.00;;;2.20;94.82
23339;BME280;11841;49.368;20.962;2023-02-13T10:20:45;97497.00;;;2.30;95.32
23339;BME280;11841;49.368;20.962;2023-02-13T10:23:16;97493.63;;;2.39;95.05
23339;BME280;11841;49.368;20.962;2023-02-13T10:26:01;97478.38;;;2.44;95.04
23339;BME280;11841;49.368;20.962;2023-02-13T10:28:51;97481.81;;;2.56;94.43
23339;BME280;11841;49.368;20.962;2023-02-13T10:31:39;97469.06;;;2.63;93.92
23339;BME280;11841;49.368;20.962;2023-02-13T10:34:13;97470.22;;;2.70;94.13
23339;BME280;11841;49.368;20.962;2023-02-13T10:36:42;97463.25;;;2.80;94.18
23339;BME280;11841;49.368;20.962;2023-02-13T10:44:21;97466.91;;;2.88;94.06
23339;BME280;11841;49.368;20.962;2023-02-13T10:55:03;97463.78;;;2.94;95.53
23339;BME280;11841;49.368;20.962;2023-02-13T11:00:15;97442.53;;;2.97;95.74
23339;BME280;11841;49.368;20.962;2023-02-13T11:02:43;97430.03;;;3.01;96.73
23339;BME280;11841;49.368;20.962;2023-02-13T11:07:39;97418.06;;;3.08;97.29
23339;BME280;11841;49.368;20.962;2023-02-13T11:10:18;97420.19;;;3.14;98.02
23339;BME280;11841;49.368;20.962;2023-02-13T11:12:45;97425.59;;;3.22;97.59
23339;BME280;11841;49.368;20.962;2023-02-13T11:17:47;97425.66;;;3.31;96.92
23339;BME280;11841;49.368;20.962;2023-02-13T11:20:35;97413.81;;;3.37;96.76
23339;BME280;11841;49.368;20.962;2023-02-13T11:26:00;97417.44;;;3.45;95.73
23339;BME280;11841;49.368;20.962;2023-02-13T11:28:29;97422.41;;;3.48;95.24
23339;BME280;11841;49.368;20.962;2023-02-13T11:31:07;97415.13;;;3.52;95.43
23339;BME280;11841;49.368;20.962;2023-02-13T11:33:35;97418.16;;;3.57;94.75
23339;BME280;11841;49.368;20.962;2023-02-13T11:36:05;97411.97;;;3.58;94.63
23339;BME280;11841;49.368;20.962;2023-02-13T11:38:32;97421.38;;;3.60;94.56
23339;BME280;11841;49.368;20.962;2023-02-13T11:41:11;97423.56;;;3.65;94.93
23339;BME280;11841;49.368;20.962;2023-02-13T11:43:46;97410.09;;;3.69;94.64
23339;BME280;11841;49.368;20.962;2023-02-13T11:46:18;97414.91;;;3.74;93.51
23339;BME280;11841;49.368;20.962;2023-02-13T11:49:01;97405.00;;;3.78;93.31
23339;BME280;11841;49.368;20.962;2023-02-13T11:51:36;97414.13;;;3.83;92.74
23339;BME280;11841;49.368;20.962;2023-02-13T11:54:04;97413.59;;;3.89;92.23
23339;BME280;11841;49.368;20.962;2023-02-13T11:56:47;97410.00;;;3.90;91.97
23339;BME280;11841;49.368;20.962;2023-02-13T11:59:30;97400.88;;;3.94;91.17
23339;BME280;11841;49.368;20.962;2023-02-13T12:02:42;97404.06;;;3.98;91.16
23339;BME280;11841;49.368;20.962;2023-02-13T12:04:48;97405.75;;;3.99;91.74
23339;BME280;11841;49.368;20.962;2023-02-13T12:09:49;97400.91;;;4.04;90.41
23339;BME280;11841;49.368;20.962;2023-02-13T12:12:18;97404.09;;;4.07;90.84
23339;BME280;11841;49.368;20.962;2023-02-13T12:14:48;97403.69;;;4.12;90.02
23339;BME280;11841;49.368;20.962;2023-02-13T12:17:16;97399.94;;;4.14;90.43
23339;BME280;11841;49.368;20.962;2023-02-13T12:19:56;97396.94;;;4.19;89.91
23339;BME280;11841;49.368;20.962;2023-02-13T12:22:38;97391.41;;;4.22;89.67
23339;BME280;11841;49.368;20.962;2023-02-13T12:28:15;97390.28;;;4.24;90.25
23339;BME280;11841;49.368;20.962;2023-02-13T12:41:06;97383.94;;;4.36;87.23
23339;BME280;11841;49.368;20.962;2023-02-13T12:51:15;97385.59;;;4.47;86.68
23339;BME280;11841;49.368;20.962;2023-02-13T13:06:22;97361.84;;;4.58;86.33
23339;BME280;11841;49.368;20.962;2023-02-13T13:14:23;97359.75;;;4.61;87.40
23339;BME280;11841;49.368;20.962;2023-02-13T13:19:28;97358.50;;;4.65;87.76
23339;BME280;11841;49.368;20.962;2023-02-13T13:27:01;97363.47;;;4.68;88.32
23339;BME280;11841;49.368;20.962;2023-02-13T13:29:31;97370.66;;;4.66;88.70
23339;BME280;11841;49.368;20.962;2023-02-13T13:32:05;97365.41;;;4.66;88.32
23339;BME280;11841;49.368;20.962;2023-02-13T13:34:33;97368.72;;;4.68;88.45
23339;BME280;11841;49.368;20.962;2023-02-13T13:42:46;97373.41;;;4.65;89.41
23339;BME280;11841;49.368;20.962;2023-02-13T13:47:45;97374.94;;;4.67;89.15
23339;BME280;11841;49.368;20.962;2023-02-13T13:50:18;97358.50;;;4.65;89.78
23339;BME280;11841;49.368;20.962;2023-02-13T13:58:20;97349.09;;;4.53;90.56
23339;BME280;11841;49.368;20.962;2023-02-13T14:01:13;97350.78;;;4.54;90.65
23339;BME280;11841;49.368;20.962;2023-02-13T14:03:34;97339.28;;;4.55;90.26
23339;BME280;11841;49.368;20.962;2023-02-13T14:06:11;97352.72;;;4.52;90.57
23339;BME280;11841;49.368;20.962;2023-02-13T14:11:06;97349.38;;;4.50;91.22
23339;BME280;11841;49.368;20.962;2023-02-13T14:13:49;97352.28;;;4.47;90.93
23339;BME280;11841;49.368;20.962;2023-02-13T14:19:01;97347.31;;;4.25;93.58
23339;BME280;11841;49.368;20.962;2023-02-13T14:21:28;97337.25;;;4.21;93.87
23339;BME280;11841;49.368;20.962;2023-02-13T14:23:54;97331.44;;;4.17;94.73
23339;BME280;11841;49.368;20.962;2023-02-13T14:28:56;97332.69;;;4.13;94.88
23339;BME280;11841;49.368;20.962;2023-02-13T14:31:30;97326.31;;;4.16;94.83
23339;BME280;11841;49.368;20.962;2023-02-13T14:36:31;97318.44;;;4.16;94.17
23339;BME280;11841;49.368;20.962;2023-02-13T14:39:05;97322.88;;;4.15;93.89
23339;BME280;11841;49.368;20.962;2023-02-13T14:46:59;97319.53;;;4.23;93.47
23339;BME280;11841;49.368;20.962;2023-02-13T14:49:29;97320.53;;;4.22;93.41
23339;BME280;11841;49.368;20.962;2023-02-13T14:52:06;97319.25;;;4.16;93.56
23339;BME280;11841;49.368;20.962;2023-02-13T14:54:35;97325.38;;;4.07;94.56
23339;BME280;11841;49.368;20.962;2023-02-13T14:57:05;97320.38;;;4.04;94.68
23339;BME280;11841;49.368;20.962;2023-02-13T14:59:33;97323.69;;;3.97;95.46
23339;BME280;11841;49.368;20.962;2023-02-13T15:04:40;97294.69;;;4.08;94.84
23339;BME280;11841;49.368;20.962;2023-02-13T15:07:16;97293.44;;;4.12;93.87
23339;BME280;11841;49.368;20.962;2023-02-13T15:10:35;97296.63;;;4.15;93.82
23339;BME280;11841;49.368;20.962;2023-02-13T15:12:35;97283.63;;;4.14;93.43
23339;BME280;11841;49.368;20.962;2023-02-13T15:15:16;97278.38;;;4.14;93.47
23339;BME280;11841;49.368;20.962;2023-02-13T15:17:47;97281.97;;;4.13;93.85
23339;BME280;11841;49.368;20.962;2023-02-13T15:20:23;97283.63;;;4.04;93.94
23339;BME280;11841;49.368;20.962;2023-02-13T15:22:51;97289.16;;;3.92;94.74
23339;BME280;11841;49.368;20.962;2023-02-13T15:25:28;97287.63;;;3.89;94.91
23339;BME280;11841;49.368;20.962;2023-02-13T15:27:56;97289.31;;;3.90;94.79
23339;BME280;11841;49.368;20.962;2023-02-13T15:30:26;97288.88;;;3.85;95.51
23339;BME280;11841;49.368;20.962;2023-02-13T15:32:54;97275.06;;;3.83;95.01
23339;BME280;11841;49.368;20.962;2023-02-13T15:37:47;97276.31;;;3.69;96.27
23339;BME280;11841;49.368;20.962;2023-02-13T15:40:27;97277.53;;;3.65;96.12
23339;BME280;11841;49.368;20.962;2023-02-13T15:42:54;97283.03;;;3.53;97.58
23339;BME280;11841;49.368;20.962;2023-02-13T15:45:21;97285.91;;;3.50;97.66
23339;BME280;11841;49.368;20.962;2023-02-13T15:47:49;97286.91;;;3.49;97.42
23339;BME280;11841;49.368;20.962;2023-02-13T15:52:46;97280.94;;;3.47;97.32
23339;BME280;11841;49.368;20.962;2023-02-13T15:55:20;97277.09;;;3.51;96.87
23339;BME280;11841;49.368;20.962;2023-02-13T15:57:47;97288.53;;;3.50;97.32
23339;BME280;11841;49.368;20.962;2023-02-13T16:00:20;97287.84;;;3.48;97.24